Marion, Mississippi
Current Conditions -  °F | °C
As of 12:58 PM on Friday 28 Nov 2014 (Local Time) from KMEI Reporting Station
Clear Clear  
Wind Chill: 54°   Ceiling: Unl
Heat Index: 54°   Visibility: 10mi
Dew Point: 22°   Wind: 5mph
Humidity: 29%   Direction: 130°SE
Pressure: 30.34"   Gusts: NA
Location:  32.42°N, 88.65°W
Report Text: KMEI 281858Z 13004KT 10SM CLR 12/M06 A3034 RMK AO2 SLP272 T01221056
Loading
Personal Weather Stations






























Interactive Weather Map New forecast layout! Learn more

10-Day Weather Forecast

Advertisements
Track Severe Weather on mobile